Time;durP1;ratioP1;P1;durP2;ratioP2;P2;SDS_P1;SDS_P2;PMS_P1;PMS_P2;Temp;Humidity;BMP_temperature;BMP_pressure;BME280_temperature;BME280_humidity;BME280_pressure;Samples;Min_cycle;Max_cycle;Signal;HPM_P1;HPM_P2
2022/03/20 00:00:55;;;;;;;13.80;8.07;;;;;;;3.15;38.84;102021.75;5106634;28;20356;-59
2022/03/20 00:03:22;;;;;;;14.88;7.43;;;;;;;2.81;38.97;101956.19;5106760;28;20099;-59
2022/03/20 00:05:49;;;;;;;11.27;7.25;;;;;;;3.18;39.17;102023.56;5106943;28;20031;-59
2022/03/20 00:08:15;;;;;;;15.90;6.95;;;;;;;3.15;39.04;102013.19;5106421;28;20332;-59
2022/03/20 00:10:44;;;;;;;12.40;7.35;;;;;;;3.19;39.14;102021.09;5106267;28;20036;-60
2022/03/20 00:13:11;;;;;;;13.88;6.95;;;;;;;3.20;39.15;102039.88;5106641;28;20028;-59
2022/03/20 00:15:43;;;;;;;14.43;7.35;;;;;;;3.11;39.67;102019.84;5106446;28;20044;-60
2022/03/20 00:18:10;;;;;;;17.85;7.68;;;;;;;3.09;39.78;102024.00;5106433;28;20024;-60
2022/03/20 00:20:38;;;;;;;16.55;8.45;;;;;;;2.96;39.94;102008.91;5106510;28;20047;-60
2022/03/20 00:23:07;;;;;;;12.93;7.47;;;;;;;3.04;40.98;102025.50;5106267;28;20194;-60
2022/03/20 00:25:38;;;;;;;12.63;8.15;;;;;;;3.01;40.47;102023.66;5106373;28;20096;-60
2022/03/20 00:28:05;;;;;;;13.27;7.65;;;;;;;3.00;40.96;102013.34;5106301;28;20339;-60
2022/03/20 00:30:30;;;;;;;14.27;8.07;;;;;;;3.03;40.68;102008.38;5106044;28;20032;-60
2022/03/20 00:32:56;;;;;;;14.02;7.65;;;;;;;3.04;41.07;102005.03;5104920;28;20206;-59
2022/03/20 00:35:22;;;;;;;11.20;7.30;;;;;;;2.94;41.04;102004.56;5106147;28;20028;-60
2022/03/20 00:37:47;;;;;;;14.35;7.85;;;;;;;2.98;41.50;102004.72;5105930;28;20206;-60
2022/03/20 00:40:13;;;;;;;10.35;6.97;;;;;;;2.98;42.52;101999.59;5105937;28;20024;-60
2022/03/20 00:42:38;;;;;;;12.98;7.72;;;;;;;2.94;41.64;102002.00;5105944;28;20027;-60
2022/03/20 00:45:04;;;;;;;16.35;7.85;;;;;;;2.97;42.09;102002.97;5105945;28;20200;-60
2022/03/20 00:47:31;;;;;;;12.00;7.07;;;;;;;2.92;42.28;102003.63;5106036;28;20032;-60
2022/03/20 00:49:56;;;;;;;10.57;7.35;;;;;;;2.86;42.54;102005.00;5105954;28;20081;-60
2022/03/20 00:52:22;;;;;;;13.63;7.43;;;;;;;2.79;43.07;102002.97;5105647;28;20024;-60
2022/03/20 00:54:47;;;;;;;10.27;7.35;;;;;;;2.77;42.88;102000.34;5105903;28;20024;-60
2022/03/20 00:57:13;;;;;;;12.50;7.70;;;;;;;2.84;42.44;102002.38;5105736;28;20247;-60
2022/03/20 00:59:39;;;;;;;12.35;7.97;;;;;;;2.77;43.15;102000.34;5105789;28;20063;-60
2022/03/20 01:02:05;;;;;;;12.93;7.40;;;;;;;2.78;43.95;101996.97;5105672;28;20028;-60
2022/03/20 01:04:31;;;;;;;11.15;7.63;;;;;;;2.70;43.49;101977.81;5105614;28;20061;-60
2022/03/20 01:07:00;;;;;;;14.45;8.75;;;;;;;2.79;43.92;102006.38;5105313;28;20099;-60
2022/03/20 01:09:26;;;;;;;14.10;8.73;;;;;;;2.77;44.55;102005.47;5105287;28;20081;-60
2022/03/20 01:11:52;;;;;;;14.13;8.25;;;;;;;2.80;44.16;101997.91;5105375;28;20271;-60
2022/03/20 01:14:19;;;;;;;15.00;8.02;;;;;;;2.78;43.90;102002.09;5105350;28;20031;-60
2022/03/20 01:16:44;;;;;;;11.73;7.70;;;;;;;2.75;44.58;102001.94;5105202;28;20020;-59
2022/03/20 01:19:10;;;;;;;17.75;9.15;;;;;;;2.73;44.11;101994.19;5105323;28;20026;-60
2022/03/20 01:21:35;;;;;;;10.98;7.72;;;;;;;2.78;44.39;102004.66;5105074;28;20024;-59
2022/03/20 01:24:02;;;;;;;13.85;7.82;;;;;;;2.78;44.58;101998.63;5105156;28;20024;-60
2022/03/20 01:26:29;;;;;;;14.07;7.85;;;;;;;2.75;44.99;102001.94;5104975;28;20020;-60
2022/03/20 01:28:55;;;;;;;13.45;7.75;;;;;;;2.66;45.08;101994.69;5105074;28;20067;-60
2022/03/20 01:31:21;;;;;;;14.95;8.77;;;;;;;2.72;44.95;101996.66;5105098;28;20036;-60
2022/03/20 01:33:46;;;;;;;15.55;8.40;;;;;;;2.73;44.94;101994.19;5105097;28;20028;-60
2022/03/20 01:36:12;;;;;;;14.48;8.85;;;;;;;2.71;45.44;101994.94;5104955;28;20036;-60
2022/03/20 01:38:38;;;;;;;11.88;7.78;;;;;;;2.67;45.52;101996.44;5105013;28;20190;-60
2022/03/20 01:41:04;;;;;;;14.43;8.32;;;;;;;2.70;44.96;101993.16;5099304;28;20024;-60
2022/03/20 01:43:29;;;;;;;13.20;8.68;;;;;;;2.72;45.41;101996.66;5085191;28;20035;-59
2022/03/20 01:45:55;;;;;;;15.68;8.98;;;;;;;2.68;45.32;101992.19;5089240;28;20028;-59
2022/03/20 01:48:21;;;;;;;19.58;9.40;;;;;;;2.60;46.43;101981.63;5104767;28;20043;-59
2022/03/20 01:50:46;;;;;;;17.00;10.43;;;;;;;2.59;46.48;101980.75;5103549;28;20096;-59
2022/03/20 01:53:12;;;;;;;17.50;10.45;;;;;;;2.63;46.00;101980.88;5104641;28;20100;-59
2022/03/20 01:55:37;;;;;;;17.13;10.80;;;;;;;2.55;46.65;101966.06;5104634;28;20020;-60
2022/03/20 01:58:03;;;;;;;19.25;11.25;;;;;;;2.56;46.81;101974.59;5104492;28;20065;-59
2022/03/20 02:00:31;;;;;;;20.10;12.07;;;;;;;2.53;46.62;101970.19;5104526;28;20344;-59
2022/03/20 02:02:57;;;;;;;19.60;11.05;;;;;;;2.55;46.78;101968.59;5104232;28;20313;-59
2022/03/20 02:05:23;;;;;;;17.42;10.68;;;;;;;2.53;47.38;101962.53;5103844;28;20073;-59
2022/03/20 02:07:49;;;;;;;21.23;11.18;;;;;;;2.54;46.90;101969.41;5103121;28;20276;-59
2022/03/20 02:10:15;;;;;;;20.75;12.55;;;;;;;2.49;48.03;101962.31;5104329;28;20028;-59
2022/03/20 02:12:41;;;;;;;21.92;12.82;;;;;;;2.51;48.26;101961.59;5104461;28;20374;-59
2022/03/20 02:15:11;;;;;;;20.77;11.50;;;;;;;2.53;47.88;101972.75;5104319;28;20031;-59
2022/03/20 02:17:38;;;;;;;25.38;12.35;;;;;;;2.52;47.75;101948.00;5104047;28;20035;-58
2022/03/20 02:20:08;;;;;;;20.55;11.68;;;;;;;2.49;49.03;101977.66;5104156;28;20035;-59
2022/03/20 02:22:37;;;;;;;26.65;13.30;;;;;;;2.19;49.31;101912.28;5104013;28;20039;-58
2022/03/20 02:25:08;;;;;;;24.08;12.23;;;;;;;2.46;48.47;101952.81;5102997;28;20036;-58
2022/03/20 02:27:34;;;;;;;22.15;11.10;;;;;;;2.46;48.77;101952.81;5103967;28;20032;-59
2022/03/20 02:30:03;;;;;;;23.30;12.13;;;;;;;2.12;48.26;101883.81;5103995;28;20046;-59
2022/03/20 02:32:31;;;;;;;25.42;12.00;;;;;;;2.41;49.84;101960.25;5103926;28;20020;-59
2022/03/20 02:35:04;;;;;;;20.20;11.15;;;;;;;2.37;49.41;101937.91;5103939;28;20024;-59
2022/03/20 02:37:31;;;;;;;19.00;10.43;;;;;;;2.44;49.45;101940.75;5103687;28;20303;-59
2022/03/20 02:40:02;;;;;;;20.95;10.23;;;;;;;2.40;50.06;101943.16;5102756;28;20087;-59
2022/03/20 02:42:29;;;;;;;21.67;10.90;;;;;;;2.40;50.02;101948.25;5104007;28;20028;-59
2022/03/20 02:45:03;;;;;;;14.95;9.18;;;;;;;2.40;50.45;101944.84;5103876;28;20024;-59
2022/03/20 02:47:33;;;;;;;14.98;9.27;;;;;;;2.06;50.79;101900.59;5103801;28;20031;-60
2022/03/20 02:50:08;;;;;;;16.90;9.02;;;;;;;2.34;50.44;101942.88;5103953;28;20308;-59
2022/03/20 02:52:39;;;;;;;22.77;11.02;;;;;;;2.32;51.44;101938.47;5103632;28;20030;-59
2022/03/20 02:55:05;;;;;;;17.33;10.27;;;;;;;2.24;50.80;101935.56;5103747;28;20321;-59
2022/03/20 02:57:32;;;;;;;16.88;9.45;;;;;;;2.21;51.73;101931.16;5103685;28;20042;-59
2022/03/20 03:00:03;;;;;;;17.17;9.70;;;;;;;2.26;52.30;101927.97;5103506;28;20024;-59
2022/03/20 03:02:33;;;;;;;18.42;9.98;;;;;;;2.23;51.61;101929.53;5103861;28;20016;-59
2022/03/20 03:04:59;;;;;;;18.25;9.90;;;;;;;2.15;52.11;101924.88;5103451;28;20035;-60
2022/03/20 03:07:30;;;;;;;15.57;8.93;;;;;;;2.05;52.46;101908.19;5100487;28;20032;-60
2022/03/20 03:12:40;;;;;;;15.13;9.27;;;;;;;2.15;52.31;101924.88;5083609;28;20040;-59
2022/03/20 03:15:21;;;;;;;16.80;9.25;;;;;;;2.06;52.81;101922.72;5083145;28;20073;-60
2022/03/20 03:17:48;;;;;;;18.50;10.15;;;;;;;2.11;52.76;101918.75;5087592;28;20070;-59
2022/03/20 03:20:15;;;;;;;16.23;9.30;;;;;;;2.11;53.03;101922.94;5104213;28;20024;-59
2022/03/20 03:22:40;;;;;;;16.95;9.82;;;;;;;2.07;52.99;101919.38;5105557;28;20098;-60
2022/03/20 03:25:06;;;;;;;16.60;9.65;;;;;;;2.09;53.89;101924.56;5106951;28;20027;-60
2022/03/20 03:27:33;;;;;;;17.17;9.75;;;;;;;1.95;53.89;101922.19;5107074;28;20028;-60
2022/03/20 03:29:58;;;;;;;14.77;9.32;;;;;;;2.02;53.69;101928.47;5107023;28;20024;-60
2022/03/20 03:32:24;;;;;;;15.43;9.07;;;;;;;2.00;54.32;101930.09;5107044;28;20024;-60
2022/03/20 03:37:34;;;;;;;12.57;8.27;;;;;;;1.96;53.76;101933.31;5103243;28;20043;-61
2022/03/20 03:40:02;;;;;;;13.90;8.95;;;;;;;1.96;54.63;101928.19;5106130;28;20032;-60
2022/03/20 03:42:29;;;;;;;14.88;9.82;;;;;;;1.99;55.56;101915.56;5106827;28;20024;-60
2022/03/20 03:44:58;;;;;;;16.20;8.95;;;;;;;1.96;55.31;101912.84;5106756;28;20087;-59
2022/03/20 03:47:25;;;;;;;14.70;8.55;;;;;;;1.98;55.79;101904.47;5105943;28;20050;-61
2022/03/20 03:49:51;;;;;;;14.93;8.52;;;;;;;2.00;54.80;101909.66;5105808;28;20039;-62
2022/03/20 03:52:17;;;;;;;16.38;8.80;;;;;;;2.07;54.67;101919.38;5105899;28;20028;-60
2022/03/20 03:54:42;;;;;;;14.35;8.40;;;;;;;2.08;54.99;101913.44;5105847;28;20225;-60
2022/03/20 03:57:08;;;;;;;19.10;9.95;;;;;;;2.12;54.61;101923.03;5105855;28;20030;-60
2022/03/20 03:59:34;;;;;;;15.07;8.32;;;;;;;2.17;54.55;101913.06;5105461;28;20042;-61
2022/03/20 04:02:00;;;;;;;17.48;9.45;;;;;;;2.14;54.87;101907.75;5105625;28;20022;-60
2022/03/20 04:04:27;;;;;;;16.52;8.50;;;;;;;2.19;55.80;101906.31;5105529;28;20020;-59
2022/03/20 04:06:54;;;;;;;16.02;9.07;;;;;;;2.17;55.33;101903.69;5105677;28;20024;-60
2022/03/20 04:09:19;;;;;;;13.73;8.90;;;;;;;2.18;55.02;101890.13;5105190;28;20024;-59
2022/03/20 04:11:45;;;;;;;18.58;9.45;;;;;;;2.28;55.92;101896.56;5104771;28;20111;-60
2022/03/20 04:14:11;;;;;;;21.20;9.90;;;;;;;2.22;56.28;101892.03;5105184;28;20317;-59
2022/03/20 04:16:36;;;;;;;14.57;9.18;;;;;;;2.24;56.46;101894.66;5104826;28;20305;-59
2022/03/20 04:19:02;;;;;;;17.88;10.20;;;;;;;2.34;56.21;101890.88;5104850;28;20024;-60
2022/03/20 04:21:29;;;;;;;19.27;9.10;;;;;;;2.09;55.63;101832.56;5104749;28;20031;-59
2022/03/20 04:23:55;;;;;;;16.30;9.65;;;;;;;2.44;56.22;101893.06;5103684;28;20028;-60
2022/03/20 04:26:22;;;;;;;14.57;9.00;;;;;;;2.49;55.76;101894.13;5103796;28;20032;-60
2022/03/20 04:28:50;;;;;;;13.80;9.25;;;;;;;2.54;55.61;101905.47;5104671;28;20032;-63
2022/03/20 04:31:17;;;;;;;14.18;9.25;;;;;;;2.48;56.39;101888.94;5104735;28;20054;-60
2022/03/20 04:33:47;;;;;;;15.77;9.57;;;;;;;2.53;56.72;101893.47;5104829;28;20032;-60
2022/03/20 04:36:13;;;;;;;14.95;9.68;;;;;;;2.58;57.10;101891.16;5104908;28;20024;-60
2022/03/20 04:38:39;;;;;;;13.77;9.68;;;;;;;2.63;56.19;101891.38;5104376;28;20024;-60
2022/03/20 04:41:05;;;;;;;21.40;9.55;;;;;;;2.62;56.53;101882.78;5104834;28;20035;-60
2022/03/20 04:43:31;;;;;;;17.15;9.45;;;;;;;2.64;56.46;101878.63;5104877;28;20028;-60
2022/03/20 04:45:58;;;;;;;15.13;9.80;;;;;;;2.65;57.25;101884.63;5104589;28;20198;-60
2022/03/20 04:59:20;;;;;;;14.68;9.18;;;;;;;3.00;56.73;101887.94;5104309;28;20077;-59
2022/03/20 05:01:46;;;;;;;16.25;9.93;;;;;;;3.02;56.61;101888.88;5104361;28;20029;-60
2022/03/20 05:04:13;;;;;;;18.45;10.57;;;;;;;3.05;56.38;101896.69;5120346;28;20201;-60
2022/03/20 05:06:46;;;;;;;17.85;10.63;;;;;;;3.12;56.51;101891.03;5104430;28;20024;-60
2022/03/20 05:14:40;;;;;;;17.30;11.20;;;;;;;3.14;57.26;101878.34;5104184;28;20267;-60
2022/03/20 05:17:07;;;;;;;16.42;10.45;;;;;;;3.12;57.59;101880.78;5105293;28;20024;-61
2022/03/20 05:19:42;;;;;;;15.52;10.63;;;;;;;3.22;57.58;101871.84;5105132;28;20026;-58
2022/03/20 05:22:10;;;;;;;18.60;10.55;;;;;;;3.18;57.53;101854.59;5103983;28;20231;-62
2022/03/20 05:24:36;;;;;;;15.95;9.98;;;;;;;3.32;57.26;101862.88;5105148;28;20032;-60
2022/03/20 05:27:03;;;;;;;21.98;10.13;;;;;;;3.32;58.22;101858.66;5104992;28;20217;-60
2022/03/20 05:29:29;;;;;;;15.85;10.88;;;;;;;3.37;57.57;101857.16;5105049;28;20040;-61
2022/03/20 05:31:55;;;;;;;16.52;9.73;;;;;;;3.45;57.81;101847.25;5104847;28;20043;-61
2022/03/20 05:34:22;;;;;;;14.48;9.55;;;;;;;3.47;57.94;101848.19;5104940;28;20210;-61
2022/03/20 05:36:48;;;;;;;15.75;9.73;;;;;;;3.47;58.25;101843.06;5105003;28;20032;-61
2022/03/20 05:39:14;;;;;;;14.80;9.88;;;;;;;3.62;57.91;101837.72;5104240;28;20321;-61
2022/03/20 05:41:49;;;;;;;15.65;10.35;;;;;;;3.67;58.08;101831.09;5104647;28;20046;-61
2022/03/20 05:44:23;;;;;;;17.42;10.90;;;;;;;3.53;58.34;101797.19;5104948;28;20032;-61
2022/03/20 05:46:51;;;;;;;13.57;10.00;;;;;;;3.80;56.70;101812.88;5104793;28;20028;-60
2022/03/20 05:49:18;;;;;;;15.32;10.63;;;;;;;3.56;57.77;101776.88;5104668;28;20054;-61
2022/03/20 05:51:44;;;;;;;18.63;10.55;;;;;;;3.79;58.28;101812.78;5104659;28;20333;-61
2022/03/20 05:54:10;;;;;;;14.15;10.02;;;;;;;3.97;57.92;101828.91;5104435;28;20100;-62
2022/03/20 05:59:20;;;;;;;15.70;10.35;;;;;;;3.99;58.34;101803.34;5104266;28;20020;-63
2022/03/20 06:01:46;;;;;;;20.02;10.82;;;;;;;4.01;58.78;101816.22;5104422;28;20209;-62
2022/03/20 06:04:13;;;;;;;15.27;9.63;;;;;;;4.14;58.83;101814.19;5104364;28;20016;-60
2022/03/20 06:06:40;;;;;;;16.02;9.98;;;;;;;4.07;58.43;101801.09;5104404;28;20035;-60
2022/03/20 06:09:06;;;;;;;18.45;10.73;;;;;;;4.21;58.10;101807.63;5085906;28;20036;-61
2022/03/20 06:11:34;;;;;;;16.00;9.80;;;;;;;4.23;58.65;101793.19;5081260;28;20064;-61
2022/03/20 06:14:06;;;;;;;14.25;9.35;;;;;;;4.34;58.57;101797.84;5082182;28;20088;-62
2022/03/20 06:16:32;;;;;;;17.73;10.10;;;;;;;4.60;57.79;101786.88;5100437;28;20542;-60
2022/03/20 06:18:58;;;;;;;14.82;9.23;;;;;;;5.35;56.05;101788.66;5100529;28;20059;-61
2022/03/20 06:21:25;;;;;;;13.52;9.20;;;;;;;5.98;54.22;101797.59;5099163;28;20035;-60
2022/03/20 06:23:53;;;;;;;14.77;9.32;;;;;;;6.43;52.57;101792.97;5100443;28;20077;-61
2022/03/20 06:26:19;;;;;;;15.10;9.10;;;;;;;7.09;50.62;101785.41;5100221;28;20028;-60
2022/03/20 06:28:44;;;;;;;13.38;7.82;;;;;;;7.75;48.37;101783.66;5099998;28;20057;-62
2022/03/20 06:31:11;;;;;;;13.30;7.95;;;;;;;8.64;46.67;101781.34;5098839;28;20065;-63
2022/03/20 06:33:38;;;;;;;11.60;7.88;;;;;;;9.30;45.76;101758.47;5100767;28;20028;-62
2022/03/20 06:36:05;;;;;;;10.07;7.72;;;;;;;9.78;43.23;101773.06;5101360;28;20038;-62
2022/03/20 06:38:33;;;;;;;13.43;7.47;;;;;;;10.15;43.45;101775.34;5099574;28;20035;-61
2022/03/20 06:40:59;;;;;;;16.90;7.93;;;;;;;10.32;43.02;101767.81;5102413;28;20024;-62
2022/03/20 06:43:25;;;;;;;10.70;8.20;;;;;;;9.78;42.22;101761.84;5103742;28;20027;-63
2022/03/20 06:45:53;;;;;;;11.73;7.45;;;;;;;9.49;44.35;101767.41;5102963;28;20048;-62
2022/03/20 06:48:19;;;;;;;13.75;8.27;;;;;;;9.66;44.01;101773.75;5100572;28;20046;-61
2022/03/20 06:50:45;;;;;;;12.65;8.07;;;;;;;9.82;43.32;101774.00;5100184;28;20028;-60
2022/03/20 06:53:11;;;;;;;11.20;8.15;;;;;;;10.05;42.19;101776.94;5101079;28;20122;-62
2022/03/20 06:55:38;;;;;;;10.63;8.05;;;;;;;10.04;43.25;101769.16;5101160;28;20102;-62
2022/03/20 06:58:04;;;;;;;11.23;8.13;;;;;;;10.54;42.26;101763.81;5100803;28;20039;-62
2022/03/20 07:00:30;;;;;;;17.65;8.85;;;;;;;10.75;41.40;101763.19;5100913;28;20024;-62
2022/03/20 07:02:57;;;;;;;13.85;8.00;;;;;;;10.94;41.18;101755.63;5100768;28;20062;-62
2022/03/20 07:05:22;;;;;;;13.30;8.52;;;;;;;11.36;40.21;101749.97;5099731;28;20039;-63
2022/03/20 07:07:52;;;;;;;12.75;7.63;;;;;;;12.04;39.50;101747.94;5102690;28;20051;-62
2022/03/20 07:10:22;;;;;;;14.63;8.52;;;;;;;12.25;38.25;101741.97;5103412;28;20050;-63
2022/03/20 07:12:49;;;;;;;9.90;7.18;;;;;;;12.47;38.85;101746.38;5103282;28;20237;-63
2022/03/20 07:15:18;;;;;;;12.52;8.13;;;;;;;12.65;37.87;101740.41;5103472;28;20038;-62
2022/03/20 07:17:45;;;;;;;15.82;8.60;;;;;;;12.48;38.96;101740.34;5103484;28;20362;-65
2022/03/20 07:20:13;;;;;;;15.48;7.50;;;;;;;12.83;37.83;101737.84;5103343;28;20367;-64
2022/03/20 07:22:39;;;;;;;12.15;8.30;;;;;;;12.70;38.36;101733.50;5103531;28;20016;-63
2022/03/20 07:30:34;;;;;;;12.30;7.43;;;;;;;12.35;38.55;101722.09;5103155;28;20035;-63
2022/03/20 07:32:59;;;;;;;11.75;7.78;;;;;;;12.51;38.65;101725.63;5103251;28;20032;-63
2022/03/20 07:35:25;;;;;;;12.93;8.07;;;;;;;12.36;39.05;101726.44;5103116;28;20031;-64
2022/03/20 07:37:51;;;;;;;11.65;7.28;;;;;;;12.48;38.53;101717.81;5103043;28;20052;-62
2022/03/20 07:40:17;;;;;;;8.30;7.05;;;;;;;12.51;38.84;101707.44;5102033;28;20211;-63
2022/03/20 07:42:43;;;;;;;11.95;7.45;;;;;;;12.13;39.27;101707.25;5103179;28;20028;-63
2022/03/20 07:45:09;;;;;;;11.60;6.97;;;;;;;11.79;39.59;101673.31;5103147;28;20088;-64
2022/03/20 07:47:35;;;;;;;9.75;6.65;;;;;;;12.32;39.39;101716.03;5103186;28;20124;-62
2022/03/20 07:50:01;;;;;;;9.43;6.85;;;;;;;12.87;38.10;101707.50;5102838;28;20032;-62
2022/03/20 07:52:27;;;;;;;14.70;6.68;;;;;;;13.33;38.09;101706.72;5102687;28;20217;-63
2022/03/20 07:54:53;;;;;;;11.80;6.82;;;;;;;13.43;37.39;101711.06;5102982;28;20070;-62
2022/03/20 07:57:18;;;;;;;12.40;6.70;;;;;;;13.18;37.23;101705.84;5101738;28;20198;-63
2022/03/20 07:59:47;;;;;;;10.50;6.10;;;;;;;12.80;36.69;101697.97;5101953;28;20028;-64
2022/03/20 08:02:13;;;;;;;10.93;6.30;;;;;;;12.92;36.99;101688.44;5102799;28;20321;-63
2022/03/20 08:04:40;;;;;;;10.98;7.07;;;;;;;13.38;36.10;101692.88;5106458;28;20024;-63
2022/03/20 08:07:06;;;;;;;8.20;6.13;;;;;;;13.06;36.31;101687.63;5106566;28;20306;-63
2022/03/20 08:09:32;;;;;;;10.52;6.43;;;;;;;13.09;36.75;101685.00;5106448;28;20305;-64
2022/03/20 08:11:58;;;;;;;10.43;6.90;;;;;;;12.89;37.70;101672.84;5105092;28;20058;-62
2022/03/20 08:14:24;;;;;;;10.75;6.82;;;;;;;12.26;37.44;101670.09;5106496;28;20031;-62
2022/03/20 08:16:50;;;;;;;7.78;5.90;;;;;;;12.29;37.95;101667.50;5106279;28;20031;-62
2022/03/20 08:19:16;;;;;;;10.20;6.53;;;;;;;12.47;37.63;101660.63;5106211;28;20027;-62
2022/03/20 08:21:43;;;;;;;10.85;5.72;;;;;;;11.92;38.62;101655.19;5106356;28;20058;-63
2022/03/20 08:24:09;;;;;;;26.02;15.30;;;;;;;12.31;37.76;101647.59;5106388;28;20087;-62
2022/03/20 08:26:35;;;;;;;9.32;6.55;;;;;;;12.50;38.03;101632.94;5106229;28;20035;-62
2022/03/20 08:29:02;;;;;;;8.68;6.25;;;;;;;12.55;36.93;101636.38;5106106;28;20055;-62
2022/03/20 08:31:29;;;;;;;12.10;6.18;;;;;;;12.71;37.13;101637.31;5105902;28;20316;-63
2022/03/20 08:33:57;;;;;;;11.63;5.75;;;;;;;12.61;37.08;101632.94;5105807;28;20247;-62
2022/03/20 08:36:24;;;;;;;7.53;6.20;;;;;;;12.87;37.38;101639.91;5106009;28;20059;-63
2022/03/20 08:38:50;;;;;;;9.75;5.90;;;;;;;12.92;37.36;101643.38;5105168;28;20027;-62
2022/03/20 08:41:16;;;;;;;9.00;5.80;;;;;;;12.93;36.44;101630.38;5106026;28;20209;-63
2022/03/20 08:43:41;;;;;;;8.48;5.22;;;;;;;12.95;35.17;101630.38;5105869;28;20035;-62
2022/03/20 08:46:07;;;;;;;12.60;5.63;;;;;;;12.37;35.90;101625.94;5121556;28;20317;-63
2022/03/20 08:48:33;;;;;;;7.95;5.30;;;;;;;13.04;34.26;101624.28;5105883;28;20038;-63
2022/03/20 08:50:58;;;;;;;9.45;5.43;;;;;;;13.07;34.62;101613.91;5105747;28;20059;-63
2022/03/20 08:53:25;;;;;;;11.85;5.95;;;;;;;12.52;35.10;101606.94;5105671;28;20043;-61
2022/03/20 08:55:51;;;;;;;11.02;5.50;;;;;;;12.21;34.64;101619.84;5104344;28;20020;-65
2022/03/20 08:58:17;;;;;;;10.93;5.20;;;;;;;12.65;33.72;101597.44;5105472;28;20313;-63
2022/03/20 09:00:44;;;;;;;9.85;5.57;;;;;;;13.13;33.66;101608.69;5105636;28;20028;-62
2022/03/20 09:03:11;;;;;;;13.10;8.02;;;;;;;13.45;34.06;101610.41;5105508;28;20038;-63
2022/03/20 09:05:37;;;;;;;7.93;4.45;;;;;;;13.67;32.20;101605.13;5105442;28;20087;-63
2022/03/20 09:08:04;;;;;;;9.13;5.38;;;;;;;13.58;32.79;101606.94;5105018;28;20024;-63
2022/03/20 09:10:30;;;;;;;7.07;4.93;;;;;;;13.45;31.54;101613.00;5104225;28;20271;-63
2022/03/20 09:12:57;;;;;;;9.70;5.10;;;;;;;13.16;32.52;101607.84;5105457;28;20032;-64
2022/03/20 09:15:24;;;;;;;8.45;4.25;;;;;;;12.65;30.55;101567.09;5104127;28;20214;-64
2022/03/20 09:20:37;;;;;;;8.18;4.50;;;;;;;13.14;30.80;101548.00;5105226;28;20032;-63
2022/03/20 09:23:03;;;;;;;9.50;4.90;;;;;;;13.09;32.06;101588.75;5105089;28;20039;-63
2022/03/20 09:25:29;;;;;;;7.35;4.30;;;;;;;13.09;31.18;101586.16;5105162;28;20035;-62
2022/03/20 09:27:55;;;;;;;7.18;4.53;;;;;;;12.90;30.54;101580.13;5105009;28;20072;-62
2022/03/20 09:30:23;;;;;;;6.32;3.92;;;;;;;13.20;31.86;101568.81;5105046;28;20032;-63
2022/03/20 09:32:49;;;;;;;8.20;4.28;;;;;;;13.33;31.87;101581.78;5104995;28;20035;-63
2022/03/20 09:35:16;;;;;;;10.95;4.30;;;;;;;12.76;31.58;101572.31;5103670;28;20487;-62
2022/03/20 09:37:41;;;;;;;6.88;3.78;;;;;;;12.62;30.82;101569.69;5104883;28;20027;-63
2022/03/20 09:40:09;;;;;;;5.68;3.83;;;;;;;12.42;31.28;101561.88;5104799;28;20015;-61
2022/03/20 09:42:36;;;;;;;9.65;4.25;;;;;;;12.20;30.82;101554.06;5103552;28;20316;-65
2022/03/20 09:45:04;;;;;;;7.03;3.25;;;;;;;11.40;29.53;101488.84;5104852;28;20047;-63
2022/03/20 09:47:29;;;;;;;6.82;3.40;;;;;;;11.53;30.49;101550.31;5104623;28;20051;-61
2022/03/20 09:49:56;;;;;;;8.75;3.00;;;;;;;11.70;29.75;101539.13;5104792;28;20321;-64
2022/03/20 09:52:23;;;;;;;6.05;3.20;;;;;;;11.57;30.41;101543.41;5104280;28;20016;-63
2022/03/20 09:54:49;;;;;;;7.18;3.08;;;;;;;11.48;29.29;101533.84;5104449;28;20100;-62
2022/03/20 09:57:15;;;;;;;10.70;3.00;;;;;;;11.14;30.74;101527.63;5104442;28;20205;-62
2022/03/20 09:59:41;;;;;;;5.53;2.53;;;;;;;11.04;29.65;101534.47;5104345;28;20198;-63
2022/03/20 10:02:12;;;;;;;6.55;2.50;;;;;;;11.07;28.16;101516.34;5104332;28;20074;-65
2022/03/20 10:05:00;;;;;;;4.65;2.53;;;;;;;11.04;28.69;101524.09;5104315;28;20081;-62
2022/03/20 10:07:28;;;;;;;9.77;2.40;;;;;;;11.14;28.28;101520.69;5103803;28;20032;-62
2022/03/20 10:10:09;;;;;;;7.53;2.60;;;;;;;11.15;28.58;101516.41;5104211;28;20225;-62
2022/03/20 10:12:40;;;;;;;5.15;2.25;;;;;;;10.76;28.01;101521.31;5103773;28;20089;-63
2022/03/20 10:15:09;;;;;;;5.57;2.03;;;;;;;10.81;27.67;101495.44;5104132;28;20043;-63
2022/03/20 10:17:36;;;;;;;7.20;2.30;;;;;;;10.99;26.87;101497.28;5102921;28;20078;-63
2022/03/20 10:20:15;;;;;;;4.35;1.90;;;;;;;10.82;26.72;101499.78;5104147;28;20313;-64
2022/03/20 10:22:41;;;;;;;4.43;2.08;;;;;;;10.83;26.77;101498.91;5104182;28;20076;-61
2022/03/20 10:25:09;;;;;;;2.60;1.77;;;;;;;10.71;27.86;101466.00;5103944;28;20055;-62
2022/03/20 10:27:35;;;;;;;3.60;2.25;;;;;;;10.91;28.50;101493.78;5119665;28;20109;-62
2022/03/20 10:30:01;;;;;;;7.88;2.20;;;;;;;11.10;27.48;101485.25;5102770;28;20228;-62
2022/03/20 10:32:28;;;;;;;5.18;2.20;;;;;;;11.27;26.94;101471.50;5102514;28;20024;-62
2022/03/20 10:35:04;;;;;;;3.72;2.22;;;;;;;11.21;27.55;101474.94;5103433;28;20034;-60
2022/03/20 10:37:48;;;;;;;5.60;1.95;;;;;;;11.21;28.25;101467.16;5102983;28;20028;-62
2022/03/20 10:40:20;;;;;;;4.72;1.80;;;;;;;11.11;26.91;101467.97;5101529;28;20032;-61
2022/03/20 10:43:24;;;;;;;8.38;1.73;;;;;;;11.06;27.39;101452.41;5099684;28;20066;-61
2022/03/20 10:46:00;;;;;;;3.10;2.10;;;;;;;11.08;28.59;101448.06;5080945;28;20066;-62
2022/03/20 10:48:36;;;;;;;7.30;1.83;;;;;;;11.08;27.43;101457.59;5081541;28;20037;-63
2022/03/20 10:51:02;;;;;;;2.33;1.80;;;;;;;11.05;27.71;101446.31;5064640;28;20036;-62
2022/03/20 10:53:28;;;;;;;5.40;2.10;;;;;;;10.90;28.87;101437.59;5081158;28;20032;-61
2022/03/20 10:56:03;;;;;;;5.95;1.90;;;;;;;10.88;27.37;101394.38;5081329;28;20052;-62
2022/03/20 10:58:29;;;;;;;4.78;2.05;;;;;;;11.16;27.71;101419.56;5081250;28;20034;-62
2022/03/20 11:00:56;;;;;;;4.00;1.73;;;;;;;11.16;28.67;101416.97;5081198;28;20028;-63
2022/03/20 11:03:23;;;;;;;4.82;1.77;;;;;;;10.98;27.55;101407.41;5081344;28;20044;-63
2022/03/20 11:05:49;;;;;;;9.15;3.15;;;;;;;11.07;28.60;101406.59;5081366;28;20039;-62
2022/03/20 11:08:16;;;;;;;4.05;1.80;;;;;;;11.14;28.37;101403.16;5081265;28;20035;-62
2022/03/20 11:10:46;;;;;;;2.35;1.60;;;;;;;10.56;29.37;101350.19;5081215;28;20047;-63
2022/03/20 11:13:17;;;;;;;6.45;2.13;;;;;;;11.12;29.30;101410.94;5081297;28;20229;-62
2022/03/20 11:15:46;;;;;;;8.02;2.40;;;;;;;11.08;29.64;101406.59;5081639;28;20060;-63
2022/03/20 11:18:18;;;;;;;6.65;2.10;;;;;;;11.03;28.86;101388.41;5084171;28;20221;-62
2022/03/20 11:20:45;;;;;;;21.90;9.65;;;;;;;10.78;30.36;101351.16;5103429;28;20043;-62
2022/03/20 11:23:14;;;;;;;8.60;2.60;;;;;;;11.10;29.25;101410.06;5103482;28;20343;-62
2022/03/20 11:25:44;;;;;;;7.35;2.33;;;;;;;10.75;29.04;101358.06;5103137;28;20074;-64
2022/03/20 11:28:12;;;;;;;4.47;2.30;;;;;;;11.12;29.72;101397.97;5103733;28;20031;-61
2022/03/20 11:30:38;;;;;;;10.27;2.42;;;;;;;11.11;30.46;101391.03;5103378;28;20217;-64
2022/03/20 11:33:05;;;;;;;11.77;2.22;;;;;;;11.25;30.72;101395.44;5103079;28;20020;-64
2022/03/20 11:35:33;;;;;;;5.65;1.83;;;;;;;11.18;31.22;101400.56;5102900;28;20026;-63
2022/03/20 11:38:17;;;;;;;5.63;2.10;;;;;;;11.01;31.03;101403.09;5103828;28;20024;-63
2022/03/20 11:41:12;;;;;;;57.53;4.75;;;;;;;10.97;31.46;101411.69;5106897;28;20020;-62
2022/03/20 11:43:44;;;;;;;6.20;2.88;;;;;;;10.64;31.93;101358.84;5106755;28;20109;-62
2022/03/20 11:46:21;;;;;;;4.93;2.10;;;;;;;11.01;31.72;101400.50;5105366;28;20083;-61
2022/03/20 11:49:15;;;;;;;5.20;1.88;;;;;;;10.94;32.42;101400.47;5106748;28;20032;-63
2022/03/20 11:52:02;;;;;;;5.38;2.13;;;;;;;11.10;32.02;101401.41;5106684;28;20024;-61
2022/03/20 11:54:48;;;;;;;8.75;1.92;;;;;;;10.83;32.29;101398.69;5106495;28;20039;-63
2022/03/20 11:57:38;;;;;;;3.55;2.03;;;;;;;11.02;33.09;101380.63;5101581;28;20261;-62